DAOO

Details ICAO DAOO (ORN)
Name ES SENIA
Region Algeria
Timezone Africa/Algiers (UTC+1.0)
Plans Departing 177
Arriving 193
Stats Elevation 295 ft / 90 m (AMSL)
Location 35.623900° -0.621185°
Runways 1
Magnetic Variation 0.240° E
Sunrise 2018-10-16 06:10:40 UTC / 2018-10-16 07:10:40 Local
Sunset 2018-10-16 17:27:45 UTC / 2018-10-16 18:27:45 Local
Advertisement - Login to hide

Runways

ID Width Length Bearing (true/mag) Surface Threshold Overrun Markings Lighting
07 148 ft / 45 m 10,006 ft / 3,050 m 67.06° / 66.82° ASPHALT 0 ft / 0 m 328 ft / 100 m APP CENTERLINE EDGE THRESHOLD SSALR TDZ
25 148 ft / 45 m 10,006 ft / 3,050 m 247.08° / 246.84° ASPHALT 196 ft / 60 m 0 ft / 0 m APP CENTERLINE EDGE THRESHOLD ALSF-II

Map

Weather


0- 5 10 15 20 25 30 35+ Temperature / °C

Clouds and Precipitation
Forecast for 2018-10-16 18:00 UTC. Updated 2 hours ago

Ground ~20,000 ft ~40,000 ft Winds

METAR

DAOO 161800Z 24005KT 8000 BKN026 FEW030TCU SCT100 11/10 Q1013

TAF

TAF DAOO 161700Z 1618/1718 22010KT 9999 BKN026 SCT100 TEMPO 1618/1802 RA PROB40 TEMPO 1619/1622 SHRA BECMG 1700/1702 VRB02KT 8000 SCT016 TEMPO 1704/1709 4000 RABR SCT010 BKN020 BECMG 36010KT

Frequencies

Tower 118.10 MHz ORAN TWR
Approach 128.20 MHz ORAN APP
Tower 119.70 MHz ORAN TWR
Approach 121.10 MHz ORAN APP
Warning: Do not use this data for real-world aviation or navigation. No guarantee of current accuracy is given.